Time;durP1;ratioP1;P1;durP2;ratioP2;P2;SDS_P1;SDS_P2;PMS_P1;PMS_P2;Temp;Humidity;BMP_temperature;BMP_pressure;BME280_temperature;BME280_humidity;BME280_pressure;Samples;Min_cycle;Max_cycle;Signal;HPM_P1;HPM_P2
2022/01/03 00:00:38;;;;;;;3.75;2.00;;;;;;;7.94;54.32;92865.75;2073714;69;20168;-76
2022/01/03 00:03:07;;;;;;;4.10;2.00;;;;;;;8.01;53.65;92854.34;2074572;69;20181;-71
2022/01/03 00:05:34;;;;;;;4.97;2.20;;;;;;;8.27;51.24;92883.56;2076310;69;20648;-73
2022/01/03 00:07:59;;;;;;;3.65;2.30;;;;;;;7.80;54.53;92874.59;2073919;69;20671;-72
2022/01/03 00:10:25;;;;;;;3.75;2.03;;;;;;;7.75;53.86;92841.25;2073504;69;20243;-70
2022/01/03 00:12:52;;;;;;;4.03;2.22;;;;;;;8.22;51.27;92859.38;2073833;69;20151;-71
2022/01/03 00:15:18;;;;;;;3.03;1.98;;;;;;;7.96;53.53;92854.66;2073573;69;20149;-68
2022/01/03 00:17:44;;;;;;;4.53;2.10;;;;;;;7.82;53.96;92843.16;2073276;69;20244;-66
2022/01/03 00:20:14;;;;;;;3.13;2.40;;;;;;;7.99;53.52;92842.28;2073692;69;20239;-68
2022/01/03 00:23:03;;;;;;;4.07;2.10;;;;;;;8.26;51.31;92856.84;2075261;69;20230;-69
2022/01/03 00:25:31;;;;;;;5.20;2.22;;;;;;;8.08;53.00;92875.19;2074064;69;20168;-66
2022/01/03 00:28:17;;;;;;;3.05;1.90;;;;;;;7.88;52.85;92833.13;2072503;69;20613;-67
2022/01/03 00:30:44;;;;;;;2.67;1.88;;;;;;;8.23;51.57;92854.50;2068806;69;20172;-68
2022/01/03 00:33:11;;;;;;;4.00;2.22;;;;;;;8.07;52.27;92862.50;2072272;69;20160;-70
2022/01/03 00:35:40;;;;;;;2.65;2.10;;;;;;;8.10;53.39;92842.41;2073955;69;20174;-68
2022/01/03 00:38:09;;;;;;;3.10;2.05;;;;;;;8.16;52.81;92847.72;2073549;69;20614;-70
2022/01/03 00:40:40;;;;;;;3.65;2.00;;;;;;;7.93;52.99;92853.78;2068918;69;20665;-68
2022/01/03 00:43:06;;;;;;;4.00;2.53;;;;;;;8.10;53.69;92869.69;2072940;69;20152;-68
2022/01/03 00:45:32;;;;;;;2.70;1.70;;;;;;;8.11;53.71;92874.00;2071178;69;20204;-68
2022/01/03 00:47:58;;;;;;;2.35;1.95;;;;;;;7.80;53.57;92815.72;2073962;69;20595;-68
2022/01/03 00:50:24;;;;;;;2.40;1.90;;;;;;;8.14;51.00;92819.53;2071180;69;20587;-70
2022/01/03 00:52:52;;;;;;;3.47;2.15;;;;;;;8.07;51.94;92849.22;2068776;69;20148;-67
2022/01/03 00:55:18;;;;;;;3.92;2.08;;;;;;;8.14;52.02;92836.34;2068391;69;20597;-68
2022/01/03 00:57:50;;;;;;;3.35;1.95;;;;;;;8.04;52.84;92818.81;2070515;69;20184;-69
2022/01/03 01:00:16;;;;;;;3.40;2.28;;;;;;;8.36;49.99;92798.69;2071863;69;20152;-67
2022/01/03 01:02:50;;;;;;;3.17;2.15;;;;;;;8.46;49.79;92815.50;2073119;69;20141;-68
2022/01/03 01:05:19;;;;;;;5.22;2.47;;;;;;;8.28;51.71;92825.41;2069675;69;20172;-68
2022/01/03 01:07:46;;;;;;;4.75;2.40;;;;;;;8.52;51.35;92832.00;2068286;69;20170;-70
2022/01/03 01:10:13;;;;;;;3.65;1.75;;;;;;;8.24;49.64;92825.84;2069287;69;20152;-69
2022/01/03 01:12:41;;;;;;;3.60;2.45;;;;;;;8.70;48.62;92830.47;2070635;69;20236;-68
2022/01/03 01:15:07;;;;;;;3.13;2.05;;;;;;;8.44;50.55;92862.34;2070373;69;20655;-69
2022/01/03 01:17:33;;;;;;;6.82;2.53;;;;;;;8.39;51.52;92861.31;2069653;69;20209;-70
2022/01/03 01:19:59;;;;;;;4.45;2.30;;;;;;;8.43;52.07;92855.22;2072976;69;20220;-73
2022/01/03 01:22:26;;;;;;;4.07;2.13;;;;;;;8.47;51.46;92863.94;2070485;69;20297;-72
2022/01/03 01:25:23;;;;;;;3.88;2.08;;;;;;;8.36;52.55;92871.63;2068730;69;20143;-68
2022/01/03 01:27:47;;;;;;;3.83;2.20;;;;;;;8.27;52.05;92869.53;2070052;69;20235;-70
2022/01/03 01:30:17;;;;;;;4.78;2.20;;;;;;;8.13;54.04;92866.47;2068300;69;20222;-73
2022/01/03 01:32:55;;;;;;;5.35;2.30;;;;;;;8.02;55.11;92880.34;2068709;69;20206;-71
2022/01/03 01:35:23;;;;;;;4.68;2.17;;;;;;;7.77;55.19;92869.41;2069588;69;20148;-67
2022/01/03 01:37:55;;;;;;;6.38;2.58;;;;;;;7.88;54.89;92852.75;2072372;69;20580;-69
2022/01/03 01:40:25;;;;;;;4.93;2.33;;;;;;;7.83;54.68;92856.59;2066748;69;20616;-66
2022/01/03 01:42:54;;;;;;;4.75;2.25;;;;;;;7.67;54.97;92849.78;2068285;69;20529;-67
2022/01/03 01:45:25;;;;;;;4.35;1.98;;;;;;;7.93;54.69;92841.84;2069623;69;20183;-67
2022/01/03 01:47:57;;;;;;;3.25;2.05;;;;;;;7.78;53.57;92812.75;2073666;69;20270;-67
2022/01/03 01:50:26;;;;;;;4.15;2.33;;;;;;;8.19;51.78;92820.56;2071462;69;20208;-67
2022/01/03 01:52:56;;;;;;;3.75;2.00;;;;;;;7.80;53.38;92809.38;2073179;69;20168;-68
2022/01/03 01:55:23;;;;;;;5.57;2.28;;;;;;;7.98;54.48;92799.50;2071247;69;20213;-69
2022/01/03 01:58:13;;;;;;;3.85;2.28;;;;;;;7.82;53.53;92812.31;2072642;69;20155;-68
2022/01/03 02:00:49;;;;;;;3.72;2.28;;;;;;;8.02;53.25;92821.47;2068244;69;20196;-66
2022/01/03 02:03:38;;;;;;;4.20;2.47;;;;;;;7.88;53.75;92807.91;2068491;69;20510;-68
2022/01/03 02:06:26;;;;;;;4.43;2.60;;;;;;;7.90;51.14;92756.84;2073184;69;20143;-67
2022/01/03 02:09:05;;;;;;;3.08;2.15;;;;;;;8.60;49.67;92818.56;2069776;69;20269;-67
2022/01/03 02:11:49;;;;;;;3.67;2.10;;;;;;;8.12;52.65;92800.50;2067131;69;20267;-67
2022/01/03 02:14:17;;;;;;;4.30;2.20;;;;;;;8.10;52.78;92782.78;2071727;69;20164;-67
2022/01/03 02:16:43;;;;;;;3.90;2.10;;;;;;;8.04;52.27;92791.50;2068585;69;20205;-67
2022/01/03 02:19:10;;;;;;;4.25;2.42;;;;;;;8.23;51.16;92799.13;2069069;69;20179;-72
2022/01/03 02:21:36;;;;;;;4.10;2.25;;;;;;;7.95;52.82;92802.72;2072379;69;20152;-73
2022/01/03 02:24:07;;;;;;;4.43;2.40;;;;;;;8.03;53.31;92809.66;2068886;69;20164;-71
2022/01/03 02:26:33;;;;;;;6.72;2.50;;;;;;;7.83;53.53;92792.13;2070350;69;20233;-70
2022/01/03 02:28:59;;;;;;;7.57;2.30;;;;;;;7.80;54.09;92793.31;2067762;69;20226;-69
2022/01/03 02:31:25;;;;;;;6.70;2.50;;;;;;;7.90;54.22;92788.41;2068891;69;20719;-68
2022/01/03 02:33:51;;;;;;;5.90;2.65;;;;;;;7.57;53.63;92809.81;2070541;69;20144;-68
2022/01/03 02:36:19;;;;;;;4.70;2.67;;;;;;;7.81;53.11;92808.06;2068343;69;20170;-68
2022/01/03 02:38:45;;;;;;;6.45;2.42;;;;;;;7.69;54.32;92785.47;2068904;69;20136;-69
2022/01/03 02:41:11;;;;;;;4.88;2.33;;;;;;;7.79;53.80;92777.06;2072265;69;20148;-68
2022/01/03 02:43:38;;;;;;;5.47;2.50;;;;;;;7.72;53.93;92767.50;2069875;69;20140;-67
2022/01/03 02:46:04;;;;;;;3.65;2.33;;;;;;;7.55;53.94;92799.19;2072168;69;20171;-70
2022/01/03 02:48:31;;;;;;;5.53;2.50;;;;;;;7.85;53.46;92777.53;2070953;69;20172;-67
2022/01/03 02:50:57;;;;;;;5.10;2.40;;;;;;;7.77;53.77;92780.47;2074806;69;20144;-67
2022/01/03 02:53:23;;;;;;;3.72;2.20;;;;;;;7.72;54.81;92789.19;2069004;69;20199;-75
2022/01/03 02:55:49;;;;;;;5.30;2.28;;;;;;;7.66;54.20;92763.53;2072790;69;20197;-72
2022/01/03 02:58:15;;;;;;;4.28;2.40;;;;;;;7.61;53.17;92773.69;2069797;69;20198;-74
2022/01/03 03:00:48;;;;;;;4.97;2.78;;;;;;;7.49;54.49;92770.00;2071100;69;20148;-72
2022/01/03 03:03:21;;;;;;;5.57;2.53;;;;;;;7.48;54.53;92777.69;2071957;69;20132;-72
2022/01/03 03:05:48;;;;;;;3.35;2.40;;;;;;;7.37;55.79;92772.66;2070647;69;20162;-72
2022/01/03 03:08:14;;;;;;;4.82;2.63;;;;;;;7.42;54.17;92765.28;2070470;69;20175;-68
2022/01/03 03:10:40;;;;;;;3.80;2.10;;;;;;;7.29;55.61;92777.66;2069555;69;20147;-70
2022/01/03 03:13:06;;;;;;;6.00;2.90;;;;;;;7.43;54.88;92767.50;2071600;69;20152;-70
2022/01/03 03:15:33;;;;;;;4.65;2.90;;;;;;;7.58;54.28;92778.41;2070618;69;20143;-74
2022/01/03 03:18:00;;;;;;;7.15;2.60;;;;;;;7.40;55.38;92768.69;2069901;69;20511;-68
2022/01/03 03:20:31;;;;;;;3.80;2.60;;;;;;;7.25;55.29;92780.91;2068416;69;20616;-68
2022/01/03 03:22:59;;;;;;;3.63;2.67;;;;;;;7.00;55.86;92797.94;2071096;69;20147;-68
2022/01/03 03:25:29;;;;;;;5.18;2.67;;;;;;;7.11;56.04;92772.19;2074526;69;20168;-69
2022/01/03 03:27:58;;;;;;;7.88;3.10;;;;;;;6.90;55.46;92763.59;2069998;69;20297;-68
2022/01/03 03:30:28;;;;;;;4.53;2.67;;;;;;;6.88;56.66;92792.19;2071208;69;20174;-69
2022/01/03 03:32:59;;;;;;;4.53;2.67;;;;;;;7.22;55.63;92765.28;2069389;69;20166;-69
2022/01/03 03:35:25;;;;;;;6.75;3.00;;;;;;;6.94;55.51;92793.94;2071757;69;20301;-76
2022/01/03 03:37:51;;;;;;;6.30;3.00;;;;;;;7.15;55.61;92796.97;2074107;69;20591;-69
2022/01/03 03:40:17;;;;;;;4.65;2.83;;;;;;;7.25;55.52;92780.16;2069329;69;20137;-70
2022/01/03 03:42:43;;;;;;;4.90;3.10;;;;;;;7.28;54.69;92760.09;2068758;69;20145;-69
2022/01/03 03:45:10;;;;;;;5.45;2.83;;;;;;;7.12;55.35;92800.91;2071398;69;20179;-68
2022/01/03 03:47:36;;;;;;;5.85;3.10;;;;;;;7.18;55.55;92809.75;2068629;69;20176;-69
2022/01/03 03:50:03;;;;;;;4.13;2.75;;;;;;;7.09;54.78;92776.88;2069133;69;20172;-69
2022/01/03 03:52:29;;;;;;;6.32;3.03;;;;;;;7.38;54.79;92771.34;2072340;69;20144;-70
2022/01/03 03:54:55;;;;;;;3.80;2.67;;;;;;;7.08;55.84;92784.56;2070511;69;20144;-68
2022/01/03 03:57:21;;;;;;;4.13;2.72;;;;;;;7.18;55.83;92801.38;2071582;69;20159;-68
2022/01/03 03:59:47;;;;;;;4.43;2.95;;;;;;;7.32;56.21;92770.88;2070400;69;20160;-68
2022/01/03 04:02:13;;;;;;;6.40;3.25;;;;;;;7.19;55.73;92796.50;2070253;69;20597;-68
2022/01/03 04:04:39;;;;;;;5.22;2.97;;;;;;;7.24;55.94;92801.06;2068387;69;20172;-68
2022/01/03 04:07:04;;;;;;;5.43;2.97;;;;;;;7.25;55.95;92774.56;2069146;69;20144;-71
2022/01/03 04:09:30;;;;;;;10.68;2.80;;;;;;;7.24;55.85;92775.88;2069534;69;20152;-71
2022/01/03 04:11:57;;;;;;;5.38;3.13;;;;;;;6.87;55.81;92776.72;2071276;69;20156;-72
2022/01/03 04:14:23;;;;;;;6.57;3.35;;;;;;;7.05;55.76;92780.13;2068768;69;20606;-74
2022/01/03 04:16:49;;;;;;;6.38;2.80;;;;;;;7.24;54.82;92753.47;2071888;69;20148;-69
2022/01/03 04:19:15;;;;;;;4.97;2.90;;;;;;;7.35;55.13;92764.84;2069302;69;20174;-70
2022/01/03 04:21:43;;;;;;;5.53;2.80;;;;;;;7.43;55.41;92755.56;2072209;69;20164;-75
2022/01/03 04:24:11;;;;;;;4.63;2.80;;;;;;;7.03;55.59;92776.44;2073352;69;20143;-72
2022/01/03 04:26:38;;;;;;;7.22;3.22;;;;;;;7.16;56.22;92761.28;2069079;69;20927;-69
2022/01/03 04:29:05;;;;;;;5.43;2.17;;;;;;;7.29;55.42;92722.41;2070372;69;20205;-69
2022/01/03 04:31:32;;;;;;;6.72;3.05;;;;;;;6.83;56.05;92758.88;2068582;69;20252;-68
2022/01/03 04:33:59;;;;;;;6.43;3.20;;;;;;;7.12;56.13;92756.84;2069562;69;20140;-68
2022/01/03 04:36:26;;;;;;;3.60;2.58;;;;;;;7.30;55.38;92754.66;2067116;69;20152;-68
2022/01/03 04:38:53;;;;;;;4.82;3.20;;;;;;;7.46;54.57;92754.38;2070759;69;20551;-71
2022/01/03 04:41:20;;;;;;;4.05;2.60;;;;;;;7.45;54.96;92755.69;2069915;69;20236;-71
2022/01/03 04:43:45;;;;;;;5.13;3.25;;;;;;;7.41;54.97;92747.00;2074336;69;20132;-69
2022/01/03 04:46:12;;;;;;;6.53;3.30;;;;;;;6.99;56.37;92770.53;2069345;69;20176;-68
2022/01/03 04:48:40;;;;;;;4.65;3.17;;;;;;;7.21;55.74;92779.88;2071613;69;20143;-68
2022/01/03 04:51:07;;;;;;;5.80;3.28;;;;;;;7.27;56.07;92761.44;2072446;69;20511;-71
2022/01/03 04:53:37;;;;;;;8.85;3.65;;;;;;;7.17;56.71;92748.75;2072236;69;20658;-73
2022/01/03 04:56:03;;;;;;;5.05;3.47;;;;;;;6.96;57.13;92785.69;2069574;69;20140;-73
2022/01/03 04:58:29;;;;;;;6.28;3.67;;;;;;;6.95;56.13;92775.84;2070881;69;20305;-74
2022/01/03 05:00:55;;;;;;;7.22;4.25;;;;;;;6.74;57.86;92759.59;2069437;69;20569;-69
2022/01/03 05:03:21;;;;;;;7.25;3.85;;;;;;;7.00;57.26;92749.63;2069280;69;20656;-69
2022/01/03 05:05:46;;;;;;;8.68;4.82;;;;;;;6.33;58.73;92767.69;2067470;69;20565;-70
2022/01/03 05:08:12;;;;;;;7.85;4.90;;;;;;;6.57;58.56;92766.00;2066525;69;20148;-68
2022/01/03 05:10:38;;;;;;;8.52;3.55;;;;;;;6.81;57.60;92750.31;2066555;69;20601;-68
2022/01/03 05:13:04;;;;;;;9.73;4.40;;;;;;;6.24;58.54;92752.34;2064556;69;20161;-74
2022/01/03 05:15:30;;;;;;;9.60;5.07;;;;;;;6.67;57.75;92758.38;2064851;69;20500;-70
2022/01/03 05:17:56;;;;;;;8.27;4.57;;;;;;;6.68;57.67;92757.06;2065832;69;20145;-72
2022/01/03 05:20:22;;;;;;;5.93;4.10;;;;;;;6.80;56.91;92766.38;2065146;69;20156;-69
2022/01/03 05:22:48;;;;;;;7.80;4.72;;;;;;;6.21;59.25;92756.28;2064654;69;20185;-72
2022/01/03 05:25:14;;;;;;;8.15;4.68;;;;;;;6.50;58.95;92736.09;2064460;69;20177;-70
2022/01/03 05:27:42;;;;;;;11.30;5.95;;;;;;;6.04;60.28;92762.66;2066918;69;20159;-70
2022/01/03 05:30:09;;;;;;;11.43;6.22;;;;;;;6.21;59.36;92747.91;2064495;69;20520;-71
2022/01/03 05:32:35;;;;;;;11.85;6.43;;;;;;;5.75;61.32;92779.25;2065090;69;20151;-67
2022/01/03 05:35:00;;;;;;;12.90;6.30;;;;;;;6.03;60.01;92763.25;2065774;69;20141;-69
2022/01/03 05:37:26;;;;;;;11.23;6.40;;;;;;;5.84;61.22;92783.41;2065719;69;20168;-68
2022/01/03 05:39:52;;;;;;;11.52;6.38;;;;;;;6.14;59.72;92771.13;2065008;69;20547;-70
2022/01/03 05:42:18;;;;;;;9.30;5.60;;;;;;;5.54;61.85;92784.53;2064451;69;20606;-69
2022/01/03 05:44:46;;;;;;;14.40;7.97;;;;;;;5.53;62.60;92791.44;2064617;69;20180;-68
2022/01/03 05:47:12;;;;;;;14.05;7.70;;;;;;;5.65;61.79;92769.34;2065978;69;20145;-72
2022/01/03 05:49:38;;;;;;;12.27;7.00;;;;;;;5.80;61.47;92791.47;2065868;69;20152;-70
2022/01/03 05:52:04;;;;;;;29.42;15.20;;;;;;;5.45;62.47;92804.72;2064934;69;20623;-72
2022/01/03 05:54:30;;;;;;;20.33;10.07;;;;;;;5.54;62.39;92813.22;2066883;69;20310;-73
2022/01/03 05:56:58;;;;;;;59.42;25.33;;;;;;;5.34;63.29;92815.06;2066214;69;20141;-74
2022/01/03 05:59:24;;;;;;;38.80;17.35;;;;;;;5.26;63.69;92824.84;2065632;69;20191;-73
2022/01/03 06:01:51;;;;;;;34.17;15.95;;;;;;;5.35;62.61;92824.19;2065728;69;20528;-73
2022/01/03 06:04:34;;;;;;;20.80;13.35;;;;;;;4.91;64.11;92838.03;2067180;69;20616;-69
2022/01/03 06:07:05;;;;;;;31.15;15.93;;;;;;;5.16;63.61;92838.72;2066534;69;20157;-74
2022/01/03 06:09:38;;;;;;;18.08;10.13;;;;;;;5.10;63.32;92852.91;2065573;69;20677;-74
2022/01/03 06:12:05;;;;;;;16.10;9.95;;;;;;;5.15;63.38;92867.94;2064245;69;20184;-77
2022/01/03 06:14:33;;;;;;;16.75;9.13;;;;;;;5.20;63.47;92883.69;2065376;69;20549;-68
2022/01/03 06:17:00;;;;;;;17.20;9.63;;;;;;;4.69;65.62;92890.63;2066740;69;20284;-71
2022/01/03 06:19:27;;;;;;;15.48;9.40;;;;;;;4.65;66.03;92895.84;2066054;69;20525;-69
2022/01/03 06:21:53;;;;;;;17.45;9.43;;;;;;;4.90;64.97;92886.72;2065298;69;20149;-68
2022/01/03 06:24:21;;;;;;;16.35;9.55;;;;;;;4.36;67.23;92900.31;2066822;69;20156;-68
2022/01/03 06:26:50;;;;;;;15.15;9.20;;;;;;;4.66;66.07;92888.22;2066136;69;20198;-68
2022/01/03 06:29:18;;;;;;;16.08;9.50;;;;;;;4.81;65.26;92866.53;2065821;69;20144;-75
2022/01/03 06:31:45;;;;;;;19.23;10.63;;;;;;;4.48;66.98;92870.66;2067253;69;20180;-70
2022/01/03 06:34:12;;;;;;;19.75;10.90;;;;;;;4.89;65.27;92840.63;2065173;69;20663;-76
2022/01/03 06:36:37;;;;;;;16.95;9.32;;;;;;;4.92;65.05;92834.66;2065533;69;20225;-72
2022/01/03 06:39:07;;;;;;;15.98;9.15;;;;;;;4.85;64.79;92836.19;2067525;69;20599;-73
2022/01/03 06:41:33;;;;;;;16.27;9.30;;;;;;;4.84;64.93;92845.88;2065107;69;20243;-69
2022/01/03 06:43:59;;;;;;;17.25;8.38;;;;;;;4.94;64.40;92829.22;2064725;69;20617;-73
2022/01/03 06:46:25;;;;;;;19.00;8.90;;;;;;;5.03;64.01;92831.38;2066593;69;20155;-68
2022/01/03 06:48:51;;;;;;;15.02;8.73;;;;;;;5.04;63.79;92834.91;2065404;69;20141;-68
2022/01/03 06:51:17;;;;;;;16.83;8.82;;;;;;;4.94;64.06;92845.22;2067266;69;20237;-68
2022/01/03 06:53:43;;;;;;;16.42;9.13;;;;;;;4.96;64.32;92837.78;2065572;69;20236;-69
2022/01/03 06:56:10;;;;;;;18.38;10.00;;;;;;;5.13;63.63;92845.44;2062954;69;20144;-68
2022/01/03 06:58:41;;;;;;;18.48;9.15;;;;;;;5.03;64.36;92825.78;2066324;69;20200;-68
2022/01/03 07:01:07;;;;;;;15.23;9.32;;;;;;;5.06;64.47;92827.44;2069327;69;20636;-69
2022/01/03 07:03:33;;;;;;;15.63;9.65;;;;;;;5.17;63.34;92812.28;2066066;69;20157;-75
2022/01/03 07:05:59;;;;;;;14.25;8.02;;;;;;;5.37;63.29;92801.31;2075301;69;20664;-70
2022/01/03 07:08:25;;;;;;;18.17;10.98;;;;;;;4.61;66.42;92850.13;2076015;69;20228;-68
2022/01/03 07:10:50;;;;;;;24.92;12.35;;;;;;;4.74;66.42;92831.06;2071123;69;20164;-72
2022/01/03 07:13:17;;;;;;;20.00;11.65;;;;;;;4.97;64.80;92816.19;2073191;69;20180;-71
2022/01/03 07:21:12;;;;;;;23.75;12.68;;;;;;;4.76;66.06;92841.66;2073740;69;20159;-68
2022/01/03 07:23:39;;;;;;;27.77;16.67;;;;;;;4.98;65.72;92868.63;2073025;69;20160;-73
2022/01/03 07:26:05;;;;;;;29.90;17.67;;;;;;;4.89;65.73;92869.25;2075496;69;20147;-68
2022/01/03 07:28:31;;;;;;;24.92;15.25;;;;;;;5.31;64.11;92846.94;2075697;69;20144;-76
2022/01/03 07:30:57;;;;;;;19.40;11.30;;;;;;;5.43;63.62;92855.56;2075863;69;20228;-71
2022/01/03 07:33:22;;;;;;;29.55;18.35;;;;;;;5.13;65.12;92875.38;2075577;69;20160;-69
2022/01/03 07:35:48;;;;;;;25.27;16.20;;;;;;;5.47;64.04;92902.63;2075708;69;20304;-68
2022/01/03 07:38:14;;;;;;;24.63;14.05;;;;;;;5.66;63.02;92874.16;2075961;69;20294;-79
2022/01/03 07:40:40;;;;;;;18.15;8.55;;;;;;;5.78;62.47;92878.66;2075661;69;20186;-79
2022/01/03 07:43:06;;;;;;;21.33;12.40;;;;;;;5.21;64.49;92874.00;2075580;69;20595;-79
2022/01/03 07:45:32;;;;;;;21.70;12.63;;;;;;;5.58;63.35;92874.22;2076132;69;20237;-71
2022/01/03 07:47:58;;;;;;;20.92;12.20;;;;;;;5.69;63.29;92886.97;2075237;69;20147;-75
2022/01/03 07:50:24;;;;;;;16.13;8.45;;;;;;;5.88;62.32;92864.78;2073239;69;20148;-75
2022/01/03 07:52:49;;;;;;;12.93;7.13;;;;;;;5.99;61.65;92880.31;2075374;69;20233;-75
2022/01/03 07:55:15;;;;;;;20.38;10.57;;;;;;;5.63;62.85;92878.06;2068785;69;20261;-74
2022/01/03 07:57:42;;;;;;;26.73;12.32;;;;;;;5.94;62.00;92870.13;2073761;69;20522;-75
2022/01/03 08:00:11;;;;;;;19.63;10.85;;;;;;;6.16;61.25;92876.75;2070410;69;20158;-75
2022/01/03 08:02:41;;;;;;;16.58;9.50;;;;;;;6.14;61.61;92852.19;2076282;69;20170;-70
2022/01/03 08:05:10;;;;;;;16.45;8.93;;;;;;;6.18;60.34;92860.88;2076059;69;20181;-69
2022/01/03 08:07:36;;;;;;;21.35;10.75;;;;;;;6.30;60.88;92863.91;2075990;69;20653;-69
2022/01/03 08:10:04;;;;;;;19.00;11.10;;;;;;;6.45;60.69;92854.56;2076428;69;20237;-70
2022/01/03 08:12:30;;;;;;;21.42;11.50;;;;;;;6.33;61.10;92865.56;2076169;69;20148;-73
2022/01/03 08:14:56;;;;;;;23.20;12.05;;;;;;;6.50;61.06;92867.53;2071946;69;20717;-69
2022/01/03 08:17:21;;;;;;;15.02;8.65;;;;;;;6.46;61.28;92856.03;2076472;69;20593;-76
2022/01/03 08:19:47;;;;;;;12.73;7.40;;;;;;;6.74;60.04;92855.47;2076273;69;20154;-71
2022/01/03 08:22:13;;;;;;;15.30;9.57;;;;;;;6.23;61.36;92857.09;2075882;69;20155;-70
2022/01/03 08:24:38;;;;;;;17.75;10.40;;;;;;;6.61;60.48;92855.84;2076313;69;20208;-72
2022/01/03 08:27:04;;;;;;;15.60;9.18;;;;;;;6.53;60.66;92866.38;2076335;69;20721;-74
2022/01/03 08:29:30;;;;;;;15.70;8.60;;;;;;;6.75;59.89;92861.78;2076075;69;20155;-70
2022/01/03 08:31:55;;;;;;;17.35;9.52;;;;;;;6.73;59.90;92851.16;2076325;69;20159;-70
2022/01/03 08:34:21;;;;;;;15.38;9.63;;;;;;;6.97;59.30;92848.78;2075051;69;20491;-69
2022/01/03 08:36:46;;;;;;;13.05;7.80;;;;;;;6.42;60.24;92853.69;2074982;69;20144;-69
2022/01/03 08:39:12;;;;;;;16.02;8.70;;;;;;;6.86;60.10;92859.16;2073826;69;20495;-70
2022/01/03 08:41:38;;;;;;;15.63;7.90;;;;;;;6.85;59.68;92849.31;2073386;69;20678;-74
2022/01/03 08:44:04;;;;;;;13.15;7.32;;;;;;;7.17;58.97;92841.91;2074269;69;20144;-72
2022/01/03 08:46:29;;;;;;;12.52;7.03;;;;;;;7.08;58.71;92853.81;2072628;69;20494;-72
2022/01/03 08:48:56;;;;;;;13.85;8.10;;;;;;;7.28;58.47;92855.31;2073807;69;20151;-72
2022/01/03 08:51:22;;;;;;;11.77;6.85;;;;;;;7.32;58.54;92841.63;2076734;69;20151;-69
2022/01/03 08:53:48;;;;;;;15.23;8.43;;;;;;;6.66;59.21;92846.44;2073393;69;20188;-70
2022/01/03 08:56:14;;;;;;;13.82;7.40;;;;;;;7.09;59.00;92858.06;2074114;69;20155;-69
2022/01/03 08:58:39;;;;;;;14.38;7.88;;;;;;;7.36;57.96;92855.94;2074478;69;20141;-70
2022/01/03 09:01:05;;;;;;;11.43;6.93;;;;;;;7.54;57.76;92845.34;2073010;69;20207;-69
2022/01/03 09:03:31;;;;;;;12.00;6.97;;;;;;;7.35;58.55;92848.13;2076487;69;20510;-72
2022/01/03 09:05:56;;;;;;;12.77;7.03;;;;;;;7.49;57.93;92863.19;2074495;69;20148;-69
2022/01/03 09:08:23;;;;;;;14.25;6.78;;;;;;;7.58;58.23;92858.91;2071809;69;20575;-69
2022/01/03 09:10:50;;;;;;;12.25;6.47;;;;;;;7.79;57.75;92835.91;2072964;69;20597;-69
2022/01/03 09:13:17;;;;;;;13.60;8.15;;;;;;;7.29;58.12;92878.47;2074954;69;20144;-70
2022/01/03 09:15:46;;;;;;;15.45;8.32;;;;;;;7.74;57.52;92890.94;2074896;69;20156;-75
2022/01/03 09:18:13;;;;;;;12.63;7.50;;;;;;;7.97;57.24;92879.31;2075338;69;20525;-75
2022/01/03 09:20:38;;;;;;;19.00;9.65;;;;;;;7.93;56.66;92872.69;2075231;69;20142;-72
2022/01/03 09:23:15;;;;;;;15.32;8.80;;;;;;;7.83;56.35;92879.03;2075197;69;20187;-76
2022/01/03 09:30:52;;;;;;;23.63;10.00;;;;;;;8.15;56.39;92872.22;2075170;69;20124;-71
2022/01/03 09:33:18;;;;;;;13.80;8.32;;;;;;;8.32;55.37;92876.19;2075046;69;20159;-73
2022/01/03 09:35:45;;;;;;;18.35;8.57;;;;;;;8.50;55.28;92882.38;2075010;69;20143;-72
2022/01/03 09:38:11;;;;;;;16.45;7.80;;;;;;;8.55;56.06;92870.13;2075250;69;20154;-71
2022/01/03 09:40:39;;;;;;;16.75;8.20;;;;;;;8.53;56.07;92861.56;2075135;69;20533;-72
2022/01/03 09:43:08;;;;;;;15.02;8.27;;;;;;;8.67;56.01;92873.78;2076465;69;20187;-71
2022/01/03 09:45:34;;;;;;;17.65;11.15;;;;;;;8.85;55.47;92860.28;2078543;69;20143;-71
2022/01/03 09:48:02;;;;;;;22.60;12.02;;;;;;;8.48;56.55;92862.63;2076197;69;20144;-73
2022/01/03 09:50:31;;;;;;;12.90;7.63;;;;;;;8.71;56.44;92864.94;2075403;69;20155;-68
2022/01/03 09:52:57;;;;;;;17.48;9.27;;;;;;;9.09;56.43;92855.63;2073177;69;20159;-68
2022/01/03 09:55:23;;;;;;;18.90;10.35;;;;;;;9.29;56.11;92861.88;2074233;69;20159;-78
2022/01/03 09:57:49;;;;;;;19.20;10.43;;;;;;;9.63;56.57;92864.19;2074467;69;20691;-75
2022/01/03 10:00:22;;;;;;;24.25;13.32;;;;;;;9.24;54.26;92863.66;2074523;69;20171;-73
2022/01/03 10:02:53;;;;;;;25.02;12.43;;;;;;;9.65;53.94;92875.56;2074812;69;20164;-78
2022/01/03 10:05:20;;;;;;;18.92;10.23;;;;;;;9.80;53.07;92884.94;2074664;69;20168;-77
2022/01/03 10:07:46;;;;;;;13.93;8.43;;;;;;;9.89;53.13;92890.50;2071475;69;20498;-75
2022/01/03 10:10:13;;;;;;;18.00;8.95;;;;;;;10.23;53.40;92877.22;2075047;69;20140;-74
2022/01/03 10:12:39;;;;;;;15.40;8.23;;;;;;;10.59;52.57;92878.13;2074373;69;20152;-72
2022/01/03 10:15:07;;;;;;;14.77;8.00;;;;;;;10.34;53.02;92858.94;2074886;69;20242;-69
2022/01/03 10:17:37;;;;;;;11.55;6.22;;;;;;;10.45;50.86;92857.53;2074997;69;20263;-68
2022/01/03 10:20:04;;;;;;;10.07;6.80;;;;;;;10.36;51.93;92856.28;2074972;69;20152;-70
2022/01/03 10:22:33;;;;;;;12.40;7.15;;;;;;;10.89;49.28;92868.03;2074972;69;20148;-68
2022/01/03 10:25:02;;;;;;;7.55;4.45;;;;;;;11.08;48.29;92859.34;2077239;69;20250;-72
2022/01/03 10:27:59;;;;;;;6.07;2.58;;;;;;;10.90;46.76;92867.44;2078276;69;20155;-69
2022/01/03 10:30:45;;;;;;;2.40;1.27;;;;;;;10.94;41.84;92864.84;2074662;69;20187;-69
2022/01/03 10:33:14;;;;;;;2.17;1.00;;;;;;;11.44;40.59;92862.91;2071598;69;20148;-71
2022/01/03 10:35:51;;;;;;;1.38;0.80;;;;;;;11.05;41.44;92852.13;2073210;69;20148;-69
2022/01/03 10:38:36;;;;;;;3.80;1.20;;;;;;;11.80;38.14;92843.88;2077681;69;20147;-70
2022/01/03 10:41:16;;;;;;;2.88;1.20;;;;;;;12.36;39.06;92840.06;2078363;69;20159;-69
2022/01/03 10:43:43;;;;;;;2.15;0.90;;;;;;;12.13;37.44;92819.03;2078533;69;20143;-70
2022/01/03 10:46:23;;;;;;;1.25;0.70;;;;;;;12.54;37.59;92821.31;2078507;69;20147;-70
2022/01/03 10:48:51;;;;;;;3.15;0.90;;;;;;;12.84;35.06;92825.06;2078420;69;20222;-70
2022/01/03 10:51:23;;;;;;;1.85;0.90;;;;;;;13.21;38.08;92822.09;2075113;69;20276;-70
2022/01/03 10:53:51;;;;;;;3.88;0.93;;;;;;;13.10;34.90;92825.78;2078302;69;20199;-70
2022/01/03 10:56:28;;;;;;;2.72;1.10;;;;;;;13.61;35.03;92827.72;2075031;69;20234;-70
2022/01/03 10:58:59;;;;;;;4.03;0.90;;;;;;;13.88;35.14;92847.53;2078377;69;20143;-71
2022/01/03 11:01:27;;;;;;;2.78;1.25;;;;;;;14.00;34.38;92838.91;2078104;69;20226;-70
2022/01/03 11:03:56;;;;;;;2.10;1.10;;;;;;;14.84;36.39;92831.63;2078076;69;20131;-74
2022/01/03 11:11:46;;;;;;;1.30;0.80;;;;;;;16.01;31.13;92830.53;2078383;69;20283;-79
2022/01/03 11:14:41;;;;;;;2.03;1.20;;;;;;;15.97;31.91;92832.47;2078329;69;20150;-82
2022/01/03 11:17:23;;;;;;;4.82;0.88;;;;;;;15.80;32.19;92818.97;2075226;69;20163;-72
2022/01/03 11:19:49;;;;;;;1.92;0.88;;;;;;;15.48;31.74;92811.19;2078502;69;20231;-72
2022/01/03 11:22:44;;;;;;;3.28;0.80;;;;;;;15.37;31.47;92814.94;2078894;69;20663;-78
2022/01/03 11:25:11;;;;;;;1.90;1.10;;;;;;;14.99;32.24;92814.66;2078921;69;20216;-70
2022/01/03 11:27:40;;;;;;;1.52;0.98;;;;;;;14.90;32.29;92806.44;2078840;69;20182;-77
2022/01/03 11:30:11;;;;;;;1.40;0.77;;;;;;;14.54;33.24;92811.09;2078819;69;20175;-77
2022/01/03 11:32:43;;;;;;;2.00;0.70;;;;;;;14.05;34.08;92803.75;2078886;69;20601;-82
2022/01/03 11:35:09;;;;;;;2.67;0.90;;;;;;;14.29;34.08;92795.72;2078778;69;20131;-74
2022/01/03 11:37:39;;;;;;;2.92;0.77;;;;;;;14.38;33.07;92799.69;2078943;69;20162;-77
2022/01/03 11:40:05;;;;;;;3.50;1.10;;;;;;;14.82;33.93;92808.88;2079067;69;20170;-76
2022/01/03 11:42:35;;;;;;;4.10;0.90;;;;;;;14.53;34.12;92806.81;2078824;69;20154;-78
2022/01/03 11:45:02;;;;;;;2.30;0.90;;;;;;;14.40;34.01;92789.19;2075473;69;20148;-74
2022/01/03 11:47:28;;;;;;;2.28;0.90;;;;;;;14.54;34.79;92766.50;2078891;69;20235;-71
2022/01/03 11:49:54;;;;;;;2.53;0.77;;;;;;;14.62;33.69;92769.00;2078690;69;20585;-71
2022/01/03 11:52:21;;;;;;;1.40;0.80;;;;;;;14.66;33.42;92755.00;2078969;69;20155;-71
2022/01/03 11:54:49;;;;;;;3.10;0.90;;;;;;;14.74;33.96;92746.88;2078707;69;20144;-71
2022/01/03 11:57:24;;;;;;;1.30;1.00;;;;;;;14.73;31.82;92754.66;2078745;69;20266;-72